Terminal Aerodrome Forecast
Issued by NWS

Home | Current Version | Previous Version | Text Only | Print | Product List | Glossary On
Versions: 1 2 3 4 5 6 7 8 9 10 11 12 13 14 15 16 17 18 19
000
FTUS41 KPHI 301700 RRA
TAFMIV
TAF
KMIV 301741Z 3018/0118 12005KT P6SM SCT040 SCT200
     FM302300 09005KT P6SM BKN040
     FM010200 00000KT 6SM BR BKN012
     FM010600 04006KT 4SM BR BKN006
     FM011400 03008KT P6SM BKN010=

USA.gov is the U.S. government's official web portal to all federal, state and local government web resources and services.